Time;durP1;ratioP1;P1;durP2;ratioP2;P2;SDS_P1;SDS_P2;PMS_P1;PMS_P2;Temp;Humidity;BMP_temperature;BMP_pressure;BME280_temperature;BME280_humidity;BME280_pressure;Samples;Min_cycle;Max_cycle;Signal;HPM_P1;HPM_P2
2023/07/24 00:01:36;;;;;;;4.70;2.50;;;;;;;;;;5094767;28;20024;-46
2023/07/24 00:04:01;;;;;;;5.73;2.43;;;;;;;;;;5103893;28;20024;-47
2023/07/24 00:06:27;;;;;;;4.90;2.40;;;;;;;;;;5106685;27;20797;-46
2023/07/24 00:08:52;;;;;;;4.63;2.30;;;;;;;;;;5104802;27;20280;-46
2023/07/24 00:11:17;;;;;;;4.03;1.97;;;;;;;;;;5103499;27;20055;-46
2023/07/24 00:13:42;;;;;;;4.47;2.13;;;;;;;;;;5102161;27;20036;-46
2023/07/24 00:16:08;;;;;;;8.30;2.70;;;;;;;;;;5093323;28;20043;-47
2023/07/24 00:18:33;;;;;;;5.40;2.55;;;;;;;;;;5091306;28;20593;-46
2023/07/24 00:20:58;;;;;;;5.43;2.30;;;;;;;;;;5100903;28;20111;-46
2023/07/24 00:23:24;;;;;;;3.70;1.97;;;;;;;;;;5102041;28;20292;-46
2023/07/24 00:25:49;;;;;;;3.87;2.00;;;;;;;;;;5082131;28;20481;-45
2023/07/24 00:28:14;;;;;;;5.68;2.40;;;;;;;;;;5094056;27;20076;-46
2023/07/24 00:30:40;;;;;;;5.37;2.13;;;;;;;;;;5096800;27;20129;-46
2023/07/24 00:33:05;;;;;;;6.90;2.25;;;;;;;;;;5103460;28;20031;-47
2023/07/24 00:35:30;;;;;;;5.17;2.50;;;;;;;;;;5100834;27;20035;-46
2023/07/24 00:37:55;;;;;;;3.80;2.10;;;;;;;;;;5098076;27;20273;-46
2023/07/24 00:40:21;;;;;;;5.97;2.07;;;;;;;;;;5096288;28;20834;-46
2023/07/24 00:42:47;;;;;;;3.87;2.20;;;;;;;;;;5100385;27;20028;-46
2023/07/24 00:45:12;;;;;;;4.88;2.28;;;;;;;;;;5097633;28;20023;-46
2023/07/24 00:47:37;;;;;;;4.65;2.42;;;;;;;;;;5091544;27;20039;-46
2023/07/24 00:50:03;;;;;;;6.57;2.17;;;;;;;;;;5104338;27;20027;-46
2023/07/24 00:52:28;;;;;;;4.70;2.28;;;;;;;;;;5098809;27;20270;-46
2023/07/24 00:54:54;;;;;;;5.50;2.30;;;;;;;;;;5085627;27;20042;-47
2023/07/24 00:57:19;;;;;;;5.97;2.65;;;;;;;;;;5098073;28;22694;-47
2023/07/24 00:59:45;;;;;;;5.35;2.65;;;;;;;;;;5099637;27;20024;-47
2023/07/24 01:02:11;;;;;;;6.80;2.25;;;;;;;;;;5102971;28;20023;-46
2023/07/24 01:04:37;;;;;;;6.30;1.67;;;;;;;;;;5107522;27;20016;-47
2023/07/24 01:07:02;;;;;;;4.97;2.67;;;;;;;;;;5097808;27;20031;-47
2023/07/24 01:09:27;;;;;;;3.95;2.25;;;;;;;;;;5098703;28;20118;-46
2023/07/24 01:12:02;;;;;;;4.27;2.20;;;;;;;;;;5105458;27;20032;-47
2023/07/24 01:14:57;;;;;;;3.50;1.95;;;;;;;;;;5103811;28;20497;-46
2023/07/24 01:17:24;;;;;;;4.90;2.25;;;;;;;;;;5080991;27;20556;-46
2023/07/24 01:19:52;;;;;;;5.53;2.45;;;;;;;;;;5097868;28;21042;-46
2023/07/24 01:22:29;;;;;;;5.82;2.50;;;;;;;;;;5097489;27;20464;-46
2023/07/24 01:25:13;;;;;;;7.35;2.53;;;;;;;;;;5099865;28;20012;-47
2023/07/24 01:27:45;;;;;;;7.45;2.63;;;;;;;;;;5102323;27;20078;-46
2023/07/24 01:30:11;;;;;;;9.52;2.60;;;;;;;;;;5098849;28;20028;-46
2023/07/24 01:32:36;;;;;;;4.40;2.63;;;;;;;;;;5104153;28;20028;-46
2023/07/24 16:50:42;;;;;;;2.63;1.27;;;;;;;;;;5121902;27;20057;-45
2023/07/24 16:53:07;;;;;;;2.78;1.30;;;;;;;;;;5118960;27;20096;-47
2023/07/24 16:55:32;;;;;;;2.97;1.23;;;;;;;;;;5113771;27;20181;-48
2023/07/24 16:57:57;;;;;;;3.63;1.33;;;;;;;;;;5119986;27;20634;-46
2023/07/24 17:00:23;;;;;;;6.03;1.30;;;;;;;;;;5121516;27;21960;-46
2023/07/24 17:02:48;;;;;;;3.33;1.23;;;;;;;;;;5112331;27;20343;-46
2023/07/24 17:05:13;;;;;;;3.33;1.03;;;;;;;;;;5115018;27;20055;-45
2023/07/24 17:07:39;;;;;;;4.37;1.70;;;;;;;;;;5107990;27;20338;-45
2023/07/24 17:10:05;;;;;;;2.17;0.97;;;;;;;;;;5131640;27;20473;-47
2023/07/24 17:12:30;;;;;;;2.60;1.20;;;;;;;;;;5129996;27;20036;-46
2023/07/24 17:14:56;;;;;;;3.33;1.80;;;;;;;;;;5126778;27;20019;-45
2023/07/24 17:17:21;;;;;;;4.15;1.60;;;;;;;;;;5115718;27;20389;-50
2023/07/24 17:19:46;;;;;;;3.03;1.20;;;;;;;;;;5115678;27;20023;-47
2023/07/24 17:22:12;;;;;;;3.30;1.55;;;;;;;;;;5110236;27;20118;-46
2023/07/24 17:24:37;;;;;;;2.57;1.00;;;;;;;;;;5119118;27;20023;-46
2023/07/24 17:27:02;;;;;;;2.37;1.30;;;;;;;;;;5138978;27;20646;-46
2023/07/24 17:29:29;;;;;;;2.53;1.48;;;;;;;;;;5118522;27;20018;-49
2023/07/24 17:31:54;;;;;;;4.28;1.90;;;;;;;;;;5117802;27;20087;-46
2023/07/24 17:34:19;;;;;;;2.83;1.20;;;;;;;;;;5115569;27;20477;-46
2023/07/24 17:36:45;;;;;;;2.47;1.50;;;;;;;;;;5115326;27;20027;-46
2023/07/24 17:39:10;;;;;;;2.45;1.20;;;;;;;;;;5121280;27;20110;-46
2023/07/24 17:41:35;;;;;;;2.63;1.20;;;;;;;;;;5117500;27;20072;-47
2023/07/24 17:44:00;;;;;;;2.83;1.25;;;;;;;;;;5113773;27;20297;-45
2023/07/24 17:46:26;;;;;;;2.30;1.30;;;;;;;;;;5112546;27;20037;-46
2023/07/24 17:48:51;;;;;;;3.55;1.42;;;;;;;;;;5128317;27;20043;-46
2023/07/24 17:51:17;;;;;;;2.93;1.50;;;;;;;;;;5129885;27;20023;-46
2023/07/24 17:53:42;;;;;;;3.72;1.42;;;;;;;;;;5126472;27;20261;-46
2023/07/24 17:56:07;;;;;;;2.63;1.40;;;;;;;;;;5129541;27;20051;-46
2023/07/24 17:58:33;;;;;;;2.73;1.47;;;;;;;;;;5117486;27;20271;-47
2023/07/24 18:00:58;;;;;;;3.27;1.17;;;;;;;;;;5131549;27;20591;-46
2023/07/24 18:03:23;;;;;;;2.70;1.43;;;;;;;;;;5119304;27;20281;-46
2023/07/24 18:05:48;;;;;;;3.40;1.40;;;;;;;;;;5119486;27;20023;-45
2023/07/24 18:08:14;;;;;;;3.77;1.53;;;;;;;;;;5110170;27;20776;-45
2023/07/24 18:10:39;;;;;;;2.63;1.37;;;;;;;;;;5112696;27;20276;-47
2023/07/24 18:13:04;;;;;;;3.63;1.83;;;;;;;;;;5126757;27;20039;-47
2023/07/24 18:15:29;;;;;;;4.80;2.20;;;;;;;;;;5119314;27;20360;-46
2023/07/24 18:17:55;;;;;;;8.63;4.10;;;;;;;;;;5113803;27;20019;-45
2023/07/24 18:20:20;;;;;;;6.03;2.20;;;;;;;;;;5127082;27;20501;-45
2023/07/24 18:22:46;;;;;;;2.03;1.20;;;;;;;;;;5124016;27;20488;-45
2023/07/24 18:25:11;;;;;;;2.88;1.45;;;;;;;;;;5120753;27;20269;-46
2023/07/24 18:27:38;;;;;;;3.05;1.60;;;;;;;;;;5127830;27;20079;-45
2023/07/24 18:30:04;;;;;;;3.30;1.65;;;;;;;;;;5123519;27;20511;-45
2023/07/24 18:32:29;;;;;;;3.33;1.30;;;;;;;;;;5126661;27;20019;-46
2023/07/24 18:34:54;;;;;;;4.20;1.17;;;;;;;;;;5111243;27;20023;-45
2023/07/24 18:37:20;;;;;;;3.55;1.30;;;;;;;;;;5125654;27;20809;-45
2023/07/24 18:39:45;;;;;;;2.97;1.40;;;;;;;;;;5119711;27;20023;-45
2023/07/24 18:42:10;;;;;;;4.00;1.37;;;;;;;;;;5101541;27;20031;-45
2023/07/24 18:44:36;;;;;;;4.97;1.47;;;;;;;;;;5107940;27;21067;-47
2023/07/24 18:47:01;;;;;;;5.23;2.10;;;;;;;;;;5115557;27;20307;-45
2023/07/24 18:49:26;;;;;;;3.67;1.50;;;;;;;;;;5119853;27;20384;-45
2023/07/24 18:51:52;;;;;;;4.80;1.80;;;;;;;;;;5119425;27;20026;-47
2023/07/24 18:54:17;;;;;;;4.15;1.80;;;;;;;;;;5125438;27;20273;-46
2023/07/24 18:56:43;;;;;;;3.40;1.70;;;;;;;;;;5121880;27;20031;-46
2023/07/24 18:59:09;;;;;;;6.00;1.52;;;;;;;;;;5129633;27;20027;-46
2023/07/24 19:01:34;;;;;;;4.55;1.73;;;;;;;;;;5107429;27;20457;-50
2023/07/24 19:03:59;;;;;;;3.37;1.60;;;;;;;;;;5117148;27;20541;-45
2023/07/24 19:06:25;;;;;;;4.90;2.10;;;;;;;;;;5124513;27;20276;-46
2023/07/24 19:08:50;;;;;;;4.17;1.60;;;;;;;;;;5124123;27;20272;-46
2023/07/24 19:11:16;;;;;;;6.72;2.15;;;;;;;;;;5125167;27;21054;-46
2023/07/24 19:13:41;;;;;;;4.03;2.00;;;;;;;;;;5125021;27;20016;-46
2023/07/24 19:16:06;;;;;;;3.85;1.98;;;;;;;;;;5124179;27;20523;-46
2023/07/24 19:18:31;;;;;;;5.30;1.97;;;;;;;;;;5126570;27;20548;-45
2023/07/24 19:20:57;;;;;;;4.65;1.90;;;;;;;;;;5106421;27;20284;-47
2023/07/24 19:23:22;;;;;;;3.80;1.77;;;;;;;;;;5120991;27;20035;-45
2023/07/24 19:25:47;;;;;;;6.23;1.80;;;;;;;;;;5103329;27;23688;-46
2023/07/24 19:28:13;;;;;;;4.90;2.33;;;;;;;;;;5112359;27;20269;-45
2023/07/24 19:30:38;;;;;;;6.47;2.47;;;;;;;;;;5129748;27;20363;-46
2023/07/24 19:33:03;;;;;;;6.07;2.28;;;;;;;;;;5110195;27;20362;-45
2023/07/24 19:35:29;;;;;;;8.40;2.07;;;;;;;;;;5126088;27;20856;-46
2023/07/24 19:37:54;;;;;;;13.40;2.30;;;;;;;;;;5121919;27;20277;-46
2023/07/24 19:40:19;;;;;;;7.65;3.30;;;;;;;;;;5126860;27;20602;-45
2023/07/24 19:42:44;;;;;;;12.33;3.23;;;;;;;;;;5116920;27;20022;-46
2023/07/24 19:45:10;;;;;;;5.70;3.30;;;;;;;;;;5117869;27;20347;-46
2023/07/24 19:47:35;;;;;;;4.50;2.00;;;;;;;;;;5123513;27;20284;-46
2023/07/24 19:50:00;;;;;;;5.88;3.03;;;;;;;;;;5115805;27;20367;-47
2023/07/24 19:52:27;;;;;;;6.30;2.57;;;;;;;;;;5123491;27;20051;-46
2023/07/24 19:54:52;;;;;;;3.58;1.70;;;;;;;;;;5120537;27;20830;-50
2023/07/24 19:57:18;;;;;;;5.70;2.43;;;;;;;;;;5116262;27;20032;-47
2023/07/24 19:59:43;;;;;;;6.90;2.60;;;;;;;;;;5121508;27;20395;-45
2023/07/24 20:02:09;;;;;;;3.67;2.13;;;;;;;;;;5123697;27;20757;-46
2023/07/24 20:04:35;;;;;;;6.65;2.50;;;;;;;;;;5123073;27;20365;-47
2023/07/24 20:07:00;;;;;;;3.47;2.22;;;;;;;;;;5114587;27;20027;-46
2023/07/24 20:09:26;;;;;;;4.60;2.08;;;;;;;;;;5131182;27;20118;-46
2023/07/24 20:11:51;;;;;;;4.15;2.13;;;;;;;;;;5112399;27;20041;-47
2023/07/24 20:14:16;;;;;;;4.70;2.13;;;;;;;;;;5120115;27;20110;-47
2023/07/24 20:16:41;;;;;;;7.57;2.30;;;;;;;;;;5123412;27;20023;-47
2023/07/24 20:19:07;;;;;;;4.47;2.07;;;;;;;;;;5114610;27;20284;-46
2023/07/24 20:21:32;;;;;;;5.13;2.30;;;;;;;;;;5115621;27;20276;-48
2023/07/24 20:24:11;;;;;;;4.53;2.27;;;;;;;;;;5121029;27;20027;-46
2023/07/24 20:26:36;;;;;;;5.43;2.55;;;;;;;;;;5120422;27;20296;-47
2023/07/24 20:29:02;;;;;;;6.45;2.30;;;;;;;;;;5129695;27;20027;-46
2023/07/24 20:31:27;;;;;;;5.93;2.88;;;;;;;;;;5129159;27;20032;-45
2023/07/24 20:33:53;;;;;;;9.03;2.63;;;;;;;;;;5121788;27;20020;-46
2023/07/24 20:36:18;;;;;;;10.23;3.00;;;;;;;;;;5117228;27;20654;-46
2023/07/24 20:38:43;;;;;;;5.57;2.08;;;;;;;;;;5116252;27;20028;-45
2023/07/24 20:41:10;;;;;;;6.30;2.58;;;;;;;;;;5123943;27;20411;-46
2023/07/24 20:43:35;;;;;;;4.68;2.55;;;;;;;;;;5115744;27;20050;-45
2023/07/24 20:46:08;;;;;;;6.18;2.25;;;;;;;;;;5127113;27;20441;-46
2023/07/24 20:48:33;;;;;;;12.75;7.40;;;;;;;;;;5121611;27;20020;-46
2023/07/24 20:50:59;;;;;;;15.30;9.93;;;;;;;;;;5128077;27;20012;-47
2023/07/24 20:53:25;;;;;;;4.97;3.22;;;;;;;;;;5122731;27;20953;-48
2023/07/24 20:55:50;;;;;;;6.50;3.20;;;;;;;;;;5131916;27;20023;-46
2023/07/24 20:58:16;;;;;;;6.50;3.37;;;;;;;;;;5127071;27;20042;-46
2023/07/24 21:00:41;;;;;;;6.68;3.95;;;;;;;;;;5117561;27;20784;-47
2023/07/24 21:03:06;;;;;;;4.47;2.17;;;;;;;;;;5122873;27;20739;-46
2023/07/24 21:05:31;;;;;;;6.10;2.37;;;;;;;;;;5129466;27;20023;-46
2023/07/24 21:07:58;;;;;;;5.87;2.70;;;;;;;;;;5125948;27;20016;-47
2023/07/24 21:10:24;;;;;;;6.35;2.92;;;;;;;;;;5125275;27;20273;-48
2023/07/24 21:12:50;;;;;;;5.97;2.70;;;;;;;;;;5120978;27;20030;-46
2023/07/24 21:15:15;;;;;;;5.25;2.88;;;;;;;;;;5121395;27;20389;-45
2023/07/24 21:17:40;;;;;;;4.93;2.58;;;;;;;;;;5128017;27;20027;-46
2023/07/24 21:20:06;;;;;;;4.63;2.77;;;;;;;;;;5129183;27;20485;-46
2023/07/24 21:22:32;;;;;;;8.50;3.03;;;;;;;;;;5104606;27;20019;-46
2023/07/24 21:24:57;;;;;;;4.35;2.25;;;;;;;;;;5124773;27;20031;-48
2023/07/24 21:27:22;;;;;;;6.60;3.55;;;;;;;;;;5120865;27;20390;-46
2023/07/24 21:29:49;;;;;;;6.07;2.47;;;;;;;;;;5124975;27;20030;-46
2023/07/24 21:32:15;;;;;;;5.00;2.78;;;;;;;;;;5120122;27;20046;-46
2023/07/24 21:34:40;;;;;;;6.77;3.20;;;;;;;;;;5123029;27;20019;-48
2023/07/24 21:37:05;;;;;;;5.55;3.13;;;;;;;;;;5121034;27;20087;-46
2023/07/24 21:39:30;;;;;;;5.13;2.57;;;;;;;;;;5134029;27;20023;-46
2023/07/24 21:41:56;;;;;;;4.77;2.37;;;;;;;;;;5116895;27;20273;-45
2023/07/24 21:44:21;;;;;;;4.90;2.80;;;;;;;;;;5129992;27;20287;-45
2023/07/24 21:46:46;;;;;;;10.13;3.10;;;;;;;;;;5125977;27;20598;-46
2023/07/24 21:49:11;;;;;;;7.72;3.10;;;;;;;;;;5129753;27;20276;-46
2023/07/24 21:51:37;;;;;;;6.67;2.80;;;;;;;;;;5113742;27;20035;-45
2023/07/24 21:54:02;;;;;;;8.27;3.13;;;;;;;;;;5115928;27;20074;-45
2023/07/24 21:56:27;;;;;;;5.70;2.57;;;;;;;;;;5125604;27;20031;-46
2023/07/24 21:58:52;;;;;;;4.90;2.80;;;;;;;;;;5126836;27;20292;-45
2023/07/24 22:01:19;;;;;;;8.07;3.17;;;;;;;;;;5103109;27;20031;-46
2023/07/24 22:03:46;;;;;;;5.10;3.15;;;;;;;;;;5107007;27;20325;-49
2023/07/24 22:06:11;;;;;;;5.88;2.97;;;;;;;;;;5111399;27;20122;-48
2023/07/24 22:08:36;;;;;;;6.55;3.03;;;;;;;;;;5096026;27;20027;-46
2023/07/24 22:11:08;;;;;;;7.83;3.90;;;;;;;;;;5123379;27;20022;-45
2023/07/24 22:13:33;;;;;;;8.77;5.13;;;;;;;;;;5125356;27;20272;-45
2023/07/24 22:15:59;;;;;;;7.85;3.28;;;;;;;;;;5117209;27;20027;-45
2023/07/24 22:18:24;;;;;;;6.67;3.30;;;;;;;;;;5116334;27;20027;-45
2023/07/24 22:20:49;;;;;;;6.13;3.07;;;;;;;;;;5114718;27;20280;-46
2023/07/24 22:23:14;;;;;;;5.63;3.40;;;;;;;;;;5121731;27;20023;-47
2023/07/24 22:25:40;;;;;;;6.23;2.87;;;;;;;;;;5121725;27;20031;-46
2023/07/24 22:28:05;;;;;;;8.13;3.27;;;;;;;;;;5115002;27;20115;-47
2023/07/24 22:30:30;;;;;;;6.22;2.92;;;;;;;;;;5120724;27;21335;-46
2023/07/24 22:32:56;;;;;;;9.23;4.13;;;;;;;;;;5114922;27;20411;-46
2023/07/24 22:35:21;;;;;;;5.45;2.95;;;;;;;;;;5124580;27;20019;-46
2023/07/24 22:37:46;;;;;;;5.35;3.30;;;;;;;;;;5113467;27;20030;-45
2023/07/24 22:40:12;;;;;;;7.63;3.07;;;;;;;;;;5125079;27;20050;-46
2023/07/24 22:42:37;;;;;;;5.72;2.95;;;;;;;;;;5128328;27;20537;-46
2023/07/24 22:45:03;;;;;;;6.17;3.20;;;;;;;;;;5130562;27;20489;-45
2023/07/24 22:47:28;;;;;;;7.95;2.80;;;;;;;;;;5136920;27;20392;-46
2023/07/24 22:49:53;;;;;;;9.50;3.60;;;;;;;;;;5125884;27;20015;-46
2023/07/24 22:52:18;;;;;;;8.50;2.90;;;;;;;;;;5121297;27;20076;-47
2023/07/24 22:54:44;;;;;;;7.30;3.17;;;;;;;;;;5129276;27;20384;-48
2023/07/24 22:57:09;;;;;;;11.52;4.20;;;;;;;;;;5117621;27;20047;-46
2023/07/24 22:59:34;;;;;;;6.27;2.87;;;;;;;;;;5118272;27;20023;-46
2023/07/24 23:02:00;;;;;;;5.20;2.97;;;;;;;;;;5122621;27;20712;-45
2023/07/24 23:04:25;;;;;;;9.87;3.00;;;;;;;;;;5125970;27;20034;-45
2023/07/24 23:06:51;;;;;;;5.57;2.95;;;;;;;;;;5097975;27;20379;-47
2023/07/24 23:09:16;;;;;;;6.20;3.20;;;;;;;;;;5129115;27;20146;-48
2023/07/24 23:11:42;;;;;;;6.97;3.30;;;;;;;;;;5107824;28;20168;-46
2023/07/24 23:14:07;;;;;;;6.88;3.13;;;;;;;;;;5121558;27;20493;-46
2023/07/24 23:16:32;;;;;;;7.53;3.75;;;;;;;;;;5116791;27;20042;-46
2023/07/24 23:18:58;;;;;;;7.90;3.20;;;;;;;;;;5130952;27;20016;-46
2023/07/24 23:21:23;;;;;;;7.10;3.42;;;;;;;;;;5128759;27;20032;-46
2023/07/24 23:23:48;;;;;;;5.80;3.50;;;;;;;;;;5114200;27;20050;-46
2023/07/24 23:26:13;;;;;;;7.70;3.17;;;;;;;;;;5124522;27;20797;-46
2023/07/24 23:28:39;;;;;;;9.13;3.87;;;;;;;;;;5126991;27;20309;-45
2023/07/24 23:31:04;;;;;;;10.17;3.30;;;;;;;;;;5125375;27;20688;-45
2023/07/24 23:33:31;;;;;;;9.57;3.83;;;;;;;;;;5130347;27;20315;-46
2023/07/24 23:35:56;;;;;;;10.63;4.15;;;;;;;;;;5120664;27;20104;-46
2023/07/24 23:38:22;;;;;;;7.13;3.40;;;;;;;;;;5125688;27;20068;-45
2023/07/24 23:40:55;;;;;;;7.53;3.50;;;;;;;;;;5131191;27;20273;-46
2023/07/24 23:43:20;;;;;;;9.25;3.45;;;;;;;;;;5136647;27;20257;-45
2023/07/24 23:45:45;;;;;;;8.03;3.50;;;;;;;;;;5126062;27;20027;-47
2023/07/24 23:48:11;;;;;;;8.50;4.17;;;;;;;;;;5126211;27;20511;-45
2023/07/24 23:50:37;;;;;;;8.80;4.00;;;;;;;;;;5131866;27;20027;-46
2023/07/24 23:53:02;;;;;;;7.00;3.42;;;;;;;;;;5131924;27;20035;-47
2023/07/24 23:55:29;;;;;;;8.53;3.50;;;;;;;;;;5132052;27;20030;-45
2023/07/24 23:57:54;;;;;;;10.07;4.57;;;;;;;;;;5133486;27;20037;-46
